createdAt,value
2018-06-15T00:00:33.241Z,10.70
2018-06-15T00:03:37.628Z,10.86
2018-06-15T00:06:41.929Z,10.90
2018-06-15T00:09:46.398Z,11.03
2018-06-15T00:12:50.694Z,11.16
2018-06-15T00:15:55.191Z,11.16
2018-06-15T00:18:59.484Z,11.22
2018-06-15T00:22:03.886Z,11.38
2018-06-15T00:25:08.216Z,11.44
2018-06-15T00:28:12.863Z,11.55
2018-06-15T00:31:17.332Z,11.32
2018-06-15T00:34:21.599Z,11.43
2018-06-15T00:37:27.133Z,11.29
2018-06-15T00:40:32.175Z,11.40
2018-06-15T00:43:36.554Z,11.43
2018-06-15T00:46:41.181Z,11.48
2018-06-15T00:49:45.506Z,11.54
2018-06-15T00:52:49.664Z,11.68
2018-06-15T00:55:54.561Z,11.46
2018-06-15T00:58:58.926Z,11.48
2018-06-15T01:02:03.239Z,11.62
2018-06-15T01:05:07.864Z,11.58
2018-06-15T01:08:12.141Z,11.81
2018-06-15T01:11:16.495Z,11.80
2018-06-15T01:14:20.833Z,11.71
2018-06-15T01:17:25.177Z,11.74
2018-06-15T01:20:29.636Z,11.90
2018-06-15T01:23:34.033Z,11.92
2018-06-15T01:27:02.177Z,11.96
2018-06-15T01:30:07.802Z,12.08
2018-06-15T01:33:12.319Z,12.24
2018-06-15T01:36:16.677Z,12.07
2018-06-15T01:39:21.693Z,12.12
2018-06-15T01:42:26.005Z,12.03
2018-06-15T01:45:30.488Z,12.11
2018-06-15T01:48:35.947Z,12.27
2018-06-15T01:51:40.258Z,12.20
2018-06-15T01:54:44.558Z,12.14
2018-06-15T01:57:48.943Z,12.21
2018-06-15T02:00:53.429Z,12.19
2018-06-15T02:03:57.777Z,12.18
2018-06-15T02:07:02.162Z,12.15
2018-06-15T02:10:06.461Z,12.24
2018-06-15T02:13:10.773Z,12.21
2018-06-15T02:16:15.086Z,12.24
2018-06-15T02:19:19.390Z,12.25
2018-06-15T02:22:23.677Z,12.22
2018-06-15T02:25:27.954Z,12.24
2018-06-15T02:28:35.190Z,12.40
2018-06-15T02:31:39.526Z,12.34
2018-06-15T02:34:43.787Z,12.40
2018-06-15T02:37:48.079Z,12.30
2018-06-15T02:40:52.355Z,12.39
2018-06-15T02:43:56.700Z,12.44
2018-06-15T02:47:00.962Z,12.38
2018-06-15T02:50:05.256Z,12.45
2018-06-15T02:53:09.561Z,12.41
2018-06-15T02:56:13.877Z,12.34
2018-06-15T02:59:18.135Z,12.27
2018-06-15T03:02:22.406Z,12.37
2018-06-15T03:05:26.823Z,12.37
2018-06-15T03:08:31.345Z,12.44
2018-06-15T03:11:35.918Z,12.52
2018-06-15T03:14:40.206Z,12.51
2018-06-15T03:17:44.938Z,12.59
2018-06-15T03:20:49.289Z,12.32
2018-06-15T03:23:53.601Z,12.40
2018-06-15T03:27:19.684Z,12.45
2018-06-15T03:30:23.964Z,12.63
2018-06-15T03:33:29.719Z,12.56
2018-06-15T03:36:37.426Z,12.44
2018-06-15T03:39:42.298Z,12.48
2018-06-15T03:42:46.803Z,12.56
2018-06-15T03:45:51.061Z,12.56
2018-06-15T03:48:55.443Z,12.63
2018-06-15T03:51:59.757Z,12.63
2018-06-15T03:55:04.161Z,12.71
2018-06-15T03:58:08.453Z,12.68
2018-06-15T04:01:13.421Z,12.80
2018-06-15T04:04:17.844Z,12.53
2018-06-15T04:07:22.200Z,12.73
2018-06-15T04:10:26.933Z,12.79
2018-06-15T04:13:31.195Z,12.91
2018-06-15T04:16:42.885Z,13.10
2018-06-15T04:19:48.044Z,12.97
2018-06-15T04:22:53.096Z,13.12
2018-06-15T04:25:57.445Z,13.13
2018-06-15T04:29:01.818Z,13.34
2018-06-15T04:32:06.166Z,13.34
2018-06-15T04:35:10.602Z,13.43
2018-06-15T04:38:15.691Z,13.69
2018-06-15T04:41:20.237Z,13.73
2018-06-15T04:44:25.670Z,13.83
2018-06-15T04:47:29.972Z,14.08
2018-06-15T04:50:34.485Z,14.09
2018-06-15T04:53:38.838Z,14.32
2018-06-15T04:56:43.151Z,14.30
2018-06-15T04:59:47.442Z,14.42
2018-06-15T05:02:52.097Z,14.42
2018-06-15T05:05:56.377Z,14.40
2018-06-15T05:09:00.693Z,14.64
2018-06-15T05:12:09.998Z,14.33
2018-06-15T05:15:14.327Z,14.25
2018-06-15T05:18:19.570Z,14.35
2018-06-15T05:21:23.962Z,14.60
2018-06-15T05:24:28.295Z,14.79
2018-06-15T05:27:32.649Z,14.99
2018-06-15T05:30:36.921Z,15.18
2018-06-15T05:33:41.238Z,15.17
2018-06-15T05:36:45.708Z,15.35
2018-06-15T05:39:50.095Z,15.32
2018-06-15T05:42:54.509Z,15.36
2018-06-15T05:45:58.954Z,15.56
2018-06-15T05:49:03.350Z,15.56
2018-06-15T05:52:07.771Z,15.62
2018-06-15T05:55:12.158Z,15.48
2018-06-15T05:58:16.616Z,15.36
2018-06-15T06:01:22.043Z,15.66
2018-06-15T06:04:26.444Z,17.06
2018-06-15T06:07:31.054Z,18.48
2018-06-15T06:10:35.346Z,19.52
2018-06-15T06:13:39.795Z,18.21
2018-06-15T06:16:44.331Z,18.63
2018-06-15T06:19:48.913Z,18.12
2018-06-15T06:22:53.539Z,19.13
2018-06-15T06:25:57.935Z,18.89
2018-06-15T06:29:02.334Z,18.93
2018-06-15T06:32:06.874Z,18.76
2018-06-15T06:35:11.735Z,20.49
2018-06-15T06:38:16.149Z,20.51
2018-06-15T06:41:21.181Z,19.70
2018-06-15T06:44:25.574Z,19.87
2018-06-15T06:47:29.860Z,20.34
2018-06-15T06:50:34.205Z,19.80
2018-06-15T06:53:38.875Z,19.63
2018-06-15T06:56:43.432Z,19.44
2018-06-15T06:59:47.723Z,18.88
2018-06-15T07:02:52.985Z,19.19
2018-06-15T07:05:57.809Z,19.22
2018-06-15T07:09:02.185Z,21.39
2018-06-15T07:12:06.830Z,21.61
2018-06-15T07:15:11.246Z,21.90
2018-06-15T07:18:16.130Z,19.43
2018-06-15T07:21:20.645Z,18.91
2018-06-15T07:24:24.947Z,19.23
2018-06-15T07:27:29.956Z,18.81
2018-06-15T07:30:34.267Z,18.82
2018-06-15T07:33:38.665Z,18.45
2018-06-15T07:36:43.036Z,18.11
2018-06-15T07:39:48.147Z,17.94
2018-06-15T07:42:53.124Z,18.14
2018-06-15T07:45:57.449Z,18.35
2018-06-15T07:49:02.006Z,18.85
2018-06-15T07:52:06.355Z,19.41
2018-06-15T07:55:10.712Z,18.93
2018-06-15T07:58:15.210Z,18.76
2018-06-15T08:01:19.531Z,18.75
2018-06-15T08:04:23.909Z,18.93
2018-06-15T08:07:28.250Z,18.73
2018-06-15T08:10:32.642Z,19.88
2018-06-15T08:13:37.010Z,18.28
2018-06-15T08:16:41.303Z,18.29
2018-06-15T08:19:45.594Z,18.37
2018-06-15T08:22:49.879Z,18.36
2018-06-15T08:25:54.805Z,18.58
2018-06-15T08:28:59.178Z,18.61
2018-06-15T08:32:04.044Z,18.45
2018-06-15T08:35:08.415Z,18.37
2018-06-15T08:38:12.763Z,17.17
2018-06-15T08:41:17.102Z,16.95
2018-06-15T08:44:21.400Z,17.00
2018-06-15T08:47:25.725Z,17.18
2018-06-15T08:50:30.069Z,17.11
2018-06-15T08:53:34.958Z,17.30
2018-06-15T08:56:39.275Z,17.09
2018-06-15T08:59:44.047Z,16.87
2018-06-15T09:02:49.435Z,16.81
2018-06-15T09:05:53.711Z,16.86
2018-06-15T09:08:58.638Z,17.35
2018-06-15T09:12:02.962Z,17.80
2018-06-15T09:15:07.354Z,18.30
2018-06-15T09:18:12.348Z,18.90
2018-06-15T09:21:16.597Z,18.90
2018-06-15T09:24:21.014Z,18.87
2018-06-15T09:27:25.069Z,18.86
2018-06-15T09:30:29.494Z,18.92
2018-06-15T09:33:34.120Z,19.19
2018-06-15T09:36:38.593Z,19.58
2018-06-15T09:39:42.950Z,19.01
2018-06-15T09:42:47.246Z,18.90
2018-06-15T09:45:52.907Z,19.40
2018-06-15T09:48:57.280Z,18.29
2018-06-15T09:52:01.577Z,18.26
2018-06-15T09:55:05.964Z,18.68
2018-06-15T09:58:11.003Z,19.16
2018-06-15T10:01:15.290Z,19.63
2018-06-15T10:04:19.611Z,19.97
2018-06-15T10:07:23.882Z,19.51
2018-06-15T10:10:28.234Z,19.56
2018-06-15T10:13:32.633Z,19.60
2018-06-15T10:16:37.163Z,19.47
2018-06-15T10:19:41.550Z,19.60
2018-06-15T10:22:52.711Z,18.74
2018-06-15T10:25:57.313Z,19.04
2018-06-15T10:29:01.585Z,19.38
2018-06-15T10:32:05.791Z,19.99
2018-06-15T10:35:10.063Z,19.93
2018-06-15T10:38:14.354Z,20.18
2018-06-15T10:41:18.771Z,19.33
2018-06-15T10:44:23.471Z,19.29
2018-06-15T10:47:27.742Z,19.46
2018-06-15T10:50:32.023Z,19.57
2018-06-15T10:53:36.637Z,20.22
2018-06-15T10:56:41.010Z,20.55
2018-06-15T10:59:45.034Z,19.96
2018-06-15T11:02:49.314Z,20.33
2018-06-15T11:05:53.967Z,19.41
2018-06-15T11:08:58.293Z,19.67
2018-06-15T11:12:03.065Z,19.71
2018-06-15T11:15:07.352Z,19.06
2018-06-15T11:18:19.584Z,19.87
2018-06-15T11:21:27.587Z,19.87
2018-06-15T11:24:33.940Z,19.59
2018-06-15T11:27:38.747Z,19.71
2018-06-15T11:30:43.120Z,19.93
2018-06-15T11:33:47.609Z,19.43
2018-06-15T11:36:51.924Z,19.35
2018-06-15T11:39:56.381Z,19.24
2018-06-15T11:43:01.825Z,19.42
2018-06-15T11:46:06.484Z,19.76
2018-06-15T11:49:10.855Z,20.16
2018-06-15T11:52:15.813Z,19.68
2018-06-15T11:55:20.170Z,20.43
2018-06-15T11:58:24.448Z,20.74
2018-06-15T12:01:28.973Z,20.92
2018-06-15T12:04:34.279Z,20.55
2018-06-15T12:07:38.622Z,20.89
2018-06-15T12:10:44.090Z,20.82
2018-06-15T12:13:54.176Z,20.48
2018-06-15T12:16:59.882Z,20.57
2018-06-15T12:20:07.219Z,21.02
2018-06-15T12:23:14.357Z,20.81
2018-06-15T12:26:18.665Z,20.90
2018-06-15T12:29:23.929Z,20.96
2018-06-15T12:32:29.569Z,20.43
2018-06-15T12:35:34.233Z,20.57
2018-06-15T12:38:39.035Z,20.68
2018-06-15T12:41:43.417Z,20.72
2018-06-15T12:44:47.811Z,20.65
2018-06-15T12:47:52.192Z,21.29
2018-06-15T12:50:56.645Z,21.44
2018-06-15T12:54:01.599Z,21.44
2018-06-15T12:57:06.461Z,21.50
2018-06-15T13:00:11.035Z,21.02
2018-06-15T13:03:15.376Z,20.42
2018-06-15T13:06:19.777Z,20.54
2018-06-15T13:09:24.517Z,20.33
2018-06-15T13:12:29.369Z,20.24
2018-06-15T13:15:33.739Z,20.57
2018-06-15T13:18:38.023Z,21.31
2018-06-15T13:21:42.132Z,21.19
2018-06-15T13:24:46.873Z,20.94
2018-06-15T13:27:51.251Z,20.91
2018-06-15T13:30:55.710Z,21.05
2018-06-15T13:34:00.137Z,21.02
2018-06-15T13:37:05.440Z,20.59
2018-06-15T13:40:10.212Z,20.66
2018-06-15T13:43:14.424Z,21.14
2018-06-15T13:46:27.913Z,21.49
2018-06-15T13:49:33.863Z,21.43
2018-06-15T13:52:39.199Z,21.31
2018-06-15T13:55:43.696Z,21.17
2018-06-15T13:58:50.235Z,21.08
2018-06-15T14:01:55.538Z,21.09
2018-06-15T14:04:59.896Z,20.77
2018-06-15T14:08:04.709Z,20.40
2018-06-15T14:11:09.824Z,20.81
2018-06-15T14:14:14.146Z,21.01
2018-06-15T14:17:18.614Z,21.22
2018-06-15T14:20:23.227Z,20.88
2018-06-15T14:23:28.554Z,20.67
2018-06-15T14:26:33.165Z,20.59
2018-06-15T14:29:39.155Z,20.89
2018-06-15T14:32:44.850Z,21.13
2018-06-15T14:35:49.387Z,20.90
2018-06-15T14:38:53.995Z,21.03
2018-06-15T14:41:58.577Z,21.15
2018-06-15T14:45:03.132Z,21.07
2018-06-15T14:48:07.551Z,21.02
2018-06-15T14:51:11.934Z,20.79
2018-06-15T14:54:16.951Z,20.74
2018-06-15T14:57:21.630Z,20.64
2018-06-15T15:00:25.959Z,20.96
2018-06-15T15:03:30.436Z,20.81
2018-06-15T15:06:35.231Z,21.31
2018-06-15T15:09:39.690Z,21.99
2018-06-15T15:12:44.167Z,21.69
2018-06-15T15:15:50.738Z,21.36
2018-06-15T15:18:56.814Z,21.03
2018-06-15T15:22:01.303Z,20.84
2018-06-15T15:25:05.639Z,21.23
2018-06-15T15:28:10.279Z,21.42
2018-06-15T15:31:14.625Z,21.01
2018-06-15T15:34:18.916Z,20.68
2018-06-15T15:37:24.429Z,20.82
2018-06-15T15:40:28.785Z,20.89
2018-06-15T15:43:33.883Z,20.92
2018-06-15T15:46:38.226Z,21.23
2018-06-15T15:49:42.534Z,21.13
2018-06-15T15:52:46.680Z,21.29
2018-06-15T15:55:51.109Z,21.18
2018-06-15T15:58:55.672Z,21.09
2018-06-15T16:02:00.605Z,20.75
2018-06-15T16:05:05.192Z,20.53
2018-06-15T16:08:09.631Z,20.36
2018-06-15T16:11:14.354Z,20.27
2018-06-15T16:14:19.057Z,20.54
2018-06-15T16:17:23.574Z,20.54
2018-06-15T16:20:28.394Z,20.76
2018-06-15T16:23:34.061Z,20.94
2018-06-15T16:26:38.710Z,21.05
2018-06-15T16:29:43.491Z,21.00
2018-06-15T16:32:48.442Z,20.80
2018-06-15T16:35:53.097Z,21.00
2018-06-15T16:38:58.384Z,21.03
2018-06-15T16:42:02.972Z,20.98
2018-06-15T16:45:07.530Z,21.60
2018-06-15T16:48:11.993Z,22.04
2018-06-15T16:51:16.517Z,22.82
2018-06-15T16:54:21.990Z,24.04
2018-06-15T16:57:26.265Z,23.72
2018-06-15T17:00:34.193Z,23.82
2018-06-15T17:03:38.737Z,22.94
2018-06-15T17:06:43.271Z,22.39
2018-06-15T17:09:47.712Z,22.47
2018-06-15T17:12:52.182Z,22.29
2018-06-15T17:15:56.573Z,21.61
2018-06-15T17:19:01.115Z,20.87
2018-06-15T17:22:05.225Z,20.88
2018-06-15T17:25:09.746Z,20.71
2018-06-15T17:28:14.364Z,20.62
2018-06-15T17:31:19.027Z,20.38
2018-06-15T17:34:23.339Z,20.25
2018-06-15T17:37:27.722Z,20.20
2018-06-15T17:40:32.462Z,20.12
2018-06-15T17:43:37.172Z,20.03
2018-06-15T17:46:41.794Z,19.99
2018-06-15T17:49:46.273Z,19.98
2018-06-15T17:52:50.922Z,19.86
2018-06-15T17:55:55.367Z,19.77
2018-06-15T17:58:59.943Z,19.69
2018-06-15T18:02:04.424Z,19.61
2018-06-15T18:05:08.940Z,19.54
2018-06-15T18:08:13.351Z,19.46
2018-06-15T18:11:17.861Z,19.45
2018-06-15T18:14:22.213Z,19.32
2018-06-15T18:17:26.750Z,19.11
2018-06-15T18:20:31.262Z,18.85
2018-06-15T18:23:36.306Z,18.78
2018-06-15T18:26:40.663Z,18.69
2018-06-15T18:29:45.076Z,18.59
2018-06-15T18:32:49.417Z,18.46
2018-06-15T18:35:53.973Z,18.35
2018-06-15T18:38:58.281Z,18.16
2018-06-15T18:42:02.681Z,18.05
2018-06-15T18:45:07.344Z,17.94
2018-06-15T18:48:13.520Z,17.82
2018-06-15T18:51:18.218Z,17.70
2018-06-15T18:54:22.776Z,17.64
2018-06-15T18:57:27.286Z,17.57
2018-06-15T19:00:32.061Z,17.46
2018-06-15T19:03:37.365Z,17.39
2018-06-15T19:06:42.117Z,17.33
2018-06-15T19:09:47.189Z,17.13
2018-06-15T19:12:51.641Z,17.02
2018-06-15T19:15:56.190Z,16.94
2018-06-15T19:19:00.766Z,16.86
2018-06-15T19:22:05.401Z,16.73
2018-06-15T19:25:10.024Z,16.60
2018-06-15T19:28:14.460Z,16.42
2018-06-15T19:31:19.268Z,16.26
2018-06-15T19:34:23.735Z,15.93
2018-06-15T19:37:28.267Z,15.57
2018-06-15T19:40:32.757Z,15.44
2018-06-15T19:43:37.370Z,15.42
2018-06-15T19:46:41.808Z,15.29
2018-06-15T19:49:46.523Z,15.29
2018-06-15T19:52:52.274Z,15.20
2018-06-15T19:55:57.034Z,15.15
2018-06-15T19:59:01.403Z,15.14
2018-06-15T20:02:06.042Z,15.08
2018-06-15T20:05:10.656Z,15.02
2018-06-15T20:08:15.082Z,15.03
2018-06-15T20:11:19.539Z,14.91
2018-06-15T20:14:23.899Z,14.83
2018-06-15T20:17:29.252Z,14.72
2018-06-15T20:20:33.926Z,14.66
2018-06-15T20:23:38.324Z,14.57
2018-06-15T20:26:42.666Z,14.50
2018-06-15T20:29:48.857Z,14.48
2018-06-15T20:32:53.478Z,14.40
2018-06-15T20:35:57.987Z,14.31
2018-06-15T20:39:02.560Z,14.27
2018-06-15T20:42:07.283Z,14.18
2018-06-15T20:45:11.732Z,14.07
2018-06-15T20:48:16.358Z,13.93
2018-06-15T20:51:20.487Z,13.82
2018-06-15T20:54:24.938Z,13.84
2018-06-15T20:57:30.046Z,13.81
2018-06-15T21:00:34.504Z,13.62
2018-06-15T21:03:40.726Z,13.65
2018-06-15T21:06:45.331Z,13.62
2018-06-15T21:09:49.990Z,13.58
2018-06-15T21:12:54.566Z,13.54
2018-06-15T21:16:00.252Z,13.49
2018-06-15T21:19:05.071Z,13.33
2018-06-15T21:22:09.870Z,13.26
2018-06-15T21:25:14.419Z,13.21
2018-06-15T21:28:19.714Z,13.13
2018-06-15T21:31:25.451Z,13.12
2018-06-15T21:34:30.847Z,13.16
2018-06-15T21:37:45.070Z,13.05
2018-06-15T21:40:50.967Z,12.99
2018-06-15T21:43:56.223Z,12.93
2018-06-15T21:47:03.181Z,12.92
2018-06-15T21:50:07.902Z,12.92
2018-06-15T21:53:13.796Z,12.92
2018-06-15T21:56:18.895Z,12.89
2018-06-15T21:59:23.349Z,12.86
2018-06-15T22:02:27.819Z,12.66
2018-06-15T22:05:33.977Z,12.69
2018-06-15T22:08:38.313Z,12.56
2018-06-15T22:11:42.837Z,12.56
2018-06-15T22:14:47.542Z,12.68
2018-06-15T22:17:52.052Z,12.55
2018-06-15T22:20:56.453Z,12.37
2018-06-15T22:24:00.850Z,12.34
2018-06-15T22:27:05.880Z,12.33
2018-06-15T22:30:10.186Z,12.18
2018-06-15T22:33:14.446Z,12.21
2018-06-15T22:36:18.977Z,12.20
2018-06-15T22:39:23.245Z,12.12
2018-06-15T22:42:27.503Z,12.15
2018-06-15T22:45:32.775Z,12.12
2018-06-15T22:48:37.154Z,12.01
2018-06-15T22:51:43.053Z,11.96
2018-06-15T22:54:47.964Z,11.98
2018-06-15T22:57:52.285Z,11.94
2018-06-15T23:00:56.606Z,11.97
2018-06-15T23:04:01.629Z,11.91
2018-06-15T23:07:05.998Z,11.94
2018-06-15T23:10:10.338Z,11.87
2018-06-15T23:13:15.084Z,11.83
2018-06-15T23:16:20.121Z,11.85
2018-06-15T23:19:24.388Z,11.74
2018-06-15T23:22:28.653Z,11.75
2018-06-15T23:25:33.823Z,11.71
2018-06-15T23:28:38.103Z,11.69
2018-06-15T23:31:42.984Z,11.66
2018-06-15T23:34:47.865Z,11.67
2018-06-15T23:37:52.158Z,11.56
2018-06-15T23:40:56.438Z,11.62
2018-06-15T23:44:01.508Z,11.56
2018-06-15T23:47:05.843Z,11.53
2018-06-15T23:50:10.639Z,11.50
2018-06-15T23:53:15.054Z,11.43
2018-06-15T23:56:19.711Z,11.49
2018-06-15T23:59:24.682Z,11.46
